sensor_id;sensor_type;location;lat;lon;timestamp;temperature;humidity
19206;DHT22;59358;52.134;5.596;2023-04-03T00:00:42;3.30;99.90
19206;DHT22;59358;52.134;5.596;2023-04-03T00:03:10;3.30;99.90
19206;DHT22;59358;52.134;5.596;2023-04-03T00:05:37;3.30;99.90
19206;DHT22;59358;52.134;5.596;2023-04-03T00:08:04;3.30;99.90
19206;DHT22;59358;52.134;5.596;2023-04-03T00:10:33;3.20;99.90
19206;DHT22;59358;52.134;5.596;2023-04-03T00:13:00;3.20;99.90
19206;DHT22;59358;52.134;5.596;2023-04-03T00:15:26;3.20;99.90
19206;DHT22;59358;52.134;5.596;2023-04-03T00:17:53;3.10;99.90
19206;DHT22;59358;52.134;5.596;2023-04-03T00:20:21;3.10;99.90
19206;DHT22;59358;52.134;5.596;2023-04-03T00:22:48;3.10;99.90
19206;DHT22;59358;52.134;5.596;2023-04-03T00:25:16;3.10;99.90
19206;DHT22;59358;52.134;5.596;2023-04-03T00:27:42;3.10;99.90
19206;DHT22;59358;52.134;5.596;2023-04-03T00:30:14;3.10;99.90
19206;DHT22;59358;52.134;5.596;2023-04-03T00:32:41;3.00;99.90
19206;DHT22;59358;52.134;5.596;2023-04-03T00:35:08;3.00;99.90
19206;DHT22;59358;52.134;5.596;2023-04-03T00:37:37;3.00;99.90
19206;DHT22;59358;52.134;5.596;2023-04-03T00:40:05;3.00;99.90
19206;DHT22;59358;52.134;5.596;2023-04-03T00:42:32;3.00;99.90
19206;DHT22;59358;52.134;5.596;2023-04-03T00:45:33;3.00;99.90
19206;DHT22;59358;52.134;5.596;2023-04-03T00:48:02;3.00;99.90
19206;DHT22;59358;52.134;5.596;2023-04-03T00:50:32;2.90;99.90
19206;DHT22;59358;52.134;5.596;2023-04-03T00:53:03;2.90;99.90
19206;DHT22;59358;52.134;5.596;2023-04-03T00:55:31;2.90;99.90
19206;DHT22;59358;52.134;5.596;2023-04-03T00:57:59;2.90;99.90
19206;DHT22;59358;52.134;5.596;2023-04-03T01:00:27;2.90;99.90
19206;DHT22;59358;52.134;5.596;2023-04-03T01:02:53;2.90;99.90
19206;DHT22;59358;52.134;5.596;2023-04-03T01:05:21;2.80;99.90
19206;DHT22;59358;52.134;5.596;2023-04-03T01:07:49;2.80;99.90
19206;DHT22;59358;52.134;5.596;2023-04-03T01:10:20;2.80;99.90
19206;DHT22;59358;52.134;5.596;2023-04-03T01:12:48;2.80;99.90
19206;DHT22;59358;52.134;5.596;2023-04-03T01:15:18;2.80;99.90
19206;DHT22;59358;52.134;5.596;2023-04-03T01:17:47;2.70;99.90
19206;DHT22;59358;52.134;5.596;2023-04-03T01:23:33;2.70;99.90
19206;DHT22;59358;52.134;5.596;2023-04-03T01:26:03;2.60;99.90
19206;DHT22;59358;52.134;5.596;2023-04-03T01:28:33;2.60;99.90
19206;DHT22;59358;52.134;5.596;2023-04-03T01:31:08;2.60;99.90
19206;DHT22;59358;52.134;5.596;2023-04-03T01:33:38;2.60;99.90
19206;DHT22;59358;52.134;5.596;2023-04-03T01:36:06;2.60;99.90
19206;DHT22;59358;52.134;5.596;2023-04-03T01:38:33;2.50;99.90
19206;DHT22;59358;52.134;5.596;2023-04-03T01:41:00;2.50;99.90
19206;DHT22;59358;52.134;5.596;2023-04-03T01:43:27;2.50;99.90
19206;DHT22;59358;52.134;5.596;2023-04-03T01:45:54;2.50;99.90
19206;DHT22;59358;52.134;5.596;2023-04-03T01:48:21;2.50;99.90
19206;DHT22;59358;52.134;5.596;2023-04-03T01:50:49;2.40;99.90
19206;DHT22;59358;52.134;5.596;2023-04-03T01:53:16;2.40;99.90
19206;DHT22;59358;52.134;5.596;2023-04-03T01:55:43;2.40;99.90
19206;DHT22;59358;52.134;5.596;2023-04-03T01:58:10;2.40;99.90
19206;DHT22;59358;52.134;5.596;2023-04-03T02:00:37;2.30;99.90
19206;DHT22;59358;52.134;5.596;2023-04-03T02:03:03;2.30;99.90
19206;DHT22;59358;52.134;5.596;2023-04-03T02:05:30;2.30;99.90
19206;DHT22;59358;52.134;5.596;2023-04-03T02:07:58;2.30;99.90
19206;DHT22;59358;52.134;5.596;2023-04-03T02:10:25;2.30;99.90
19206;DHT22;59358;52.134;5.596;2023-04-03T02:12:52;2.30;99.90
19206;DHT22;59358;52.134;5.596;2023-04-03T02:15:19;2.30;99.90
19206;DHT22;59358;52.134;5.596;2023-04-03T02:17:46;2.30;99.90
19206;DHT22;59358;52.134;5.596;2023-04-03T02:20:12;2.30;99.90
19206;DHT22;59358;52.134;5.596;2023-04-03T02:22:39;2.20;99.90
19206;DHT22;59358;52.134;5.596;2023-04-03T02:25:08;2.20;99.90
19206;DHT22;59358;52.134;5.596;2023-04-03T02:27:35;2.20;99.90
19206;DHT22;59358;52.134;5.596;2023-04-03T02:30:03;2.20;99.90
19206;DHT22;59358;52.134;5.596;2023-04-03T02:32:30;2.20;99.90
19206;DHT22;59358;52.134;5.596;2023-04-03T02:34:57;2.20;99.90
19206;DHT22;59358;52.134;5.596;2023-04-03T02:37:24;2.20;99.90
19206;DHT22;59358;52.134;5.596;2023-04-03T02:39:51;2.20;99.90
19206;DHT22;59358;52.134;5.596;2023-04-03T02:42:19;2.20;99.90
19206;DHT22;59358;52.134;5.596;2023-04-03T02:44:48;2.10;99.90
19206;DHT22;59358;52.134;5.596;2023-04-03T02:47:15;2.20;99.90
19206;DHT22;59358;52.134;5.596;2023-04-03T02:49:42;2.10;99.90
19206;DHT22;59358;52.134;5.596;2023-04-03T02:52:10;2.10;99.90
19206;DHT22;59358;52.134;5.596;2023-04-03T02:54:37;2.10;99.90
19206;DHT22;59358;52.134;5.596;2023-04-03T02:57:04;2.10;99.90
19206;DHT22;59358;52.134;5.596;2023-04-03T02:59:32;2.10;99.90
19206;DHT22;59358;52.134;5.596;2023-04-03T03:01:59;2.00;99.90
19206;DHT22;59358;52.134;5.596;2023-04-03T03:04:25;2.00;99.90
19206;DHT22;59358;52.134;5.596;2023-04-03T03:06:52;2.00;99.90
19206;DHT22;59358;52.134;5.596;2023-04-03T03:09:19;2.00;99.90
19206;DHT22;59358;52.134;5.596;2023-04-03T03:11:46;2.00;99.90
19206;DHT22;59358;52.134;5.596;2023-04-03T03:14:13;2.00;99.90
19206;DHT22;59358;52.134;5.596;2023-04-03T03:16:41;2.00;99.90
19206;DHT22;59358;52.134;5.596;2023-04-03T03:19:08;2.00;99.90
19206;DHT22;59358;52.134;5.596;2023-04-03T03:21:34;2.00;99.90
19206;DHT22;59358;52.134;5.596;2023-04-03T03:24:01;2.00;99.90
19206;DHT22;59358;52.134;5.596;2023-04-03T03:26:28;1.90;99.90
19206;DHT22;59358;52.134;5.596;2023-04-03T03:28:55;1.90;99.90
19206;DHT22;59358;52.134;5.596;2023-04-03T03:31:22;1.90;99.90
19206;DHT22;59358;52.134;5.596;2023-04-03T03:33:50;1.90;99.90
19206;DHT22;59358;52.134;5.596;2023-04-03T03:36:17;1.90;99.90
19206;DHT22;59358;52.134;5.596;2023-04-03T03:38:44;1.90;99.90
19206;DHT22;59358;52.134;5.596;2023-04-03T03:41:11;1.80;99.90
19206;DHT22;59358;52.134;5.596;2023-04-03T03:43:38;1.90;99.90
19206;DHT22;59358;52.134;5.596;2023-04-03T03:46:05;1.80;99.90
19206;DHT22;59358;52.134;5.596;2023-04-03T03:48:31;1.80;99.90
19206;DHT22;59358;52.134;5.596;2023-04-03T03:51:00;1.80;99.90
19206;DHT22;59358;52.134;5.596;2023-04-03T03:53:26;1.80;99.90
19206;DHT22;59358;52.134;5.596;2023-04-03T03:55:53;1.80;99.90
19206;DHT22;59358;52.134;5.596;2023-04-03T03:58:20;1.80;99.90
19206;DHT22;59358;52.134;5.596;2023-04-03T04:00:47;1.80;99.90
19206;DHT22;59358;52.134;5.596;2023-04-03T04:03:14;1.70;99.90
19206;DHT22;59358;52.134;5.596;2023-04-03T04:05:41;1.70;99.90
19206;DHT22;59358;52.134;5.596;2023-04-03T04:08:09;1.70;99.90
19206;DHT22;59358;52.134;5.596;2023-04-03T04:10:37;1.70;99.90
19206;DHT22;59358;52.134;5.596;2023-04-03T04:13:04;1.70;99.90
19206;DHT22;59358;52.134;5.596;2023-04-03T04:15:31;1.70;99.90
19206;DHT22;59358;52.134;5.596;2023-04-03T04:17:57;1.60;99.90
19206;DHT22;59358;52.134;5.596;2023-04-03T04:20:24;1.60;99.90
19206;DHT22;59358;52.134;5.596;2023-04-03T04:22:51;1.60;99.90
19206;DHT22;59358;52.134;5.596;2023-04-03T04:25:19;1.50;99.90
19206;DHT22;59358;52.134;5.596;2023-04-03T04:27:46;1.50;99.90
19206;DHT22;59358;52.134;5.596;2023-04-03T04:30:13;1.50;99.90
19206;DHT22;59358;52.134;5.596;2023-04-03T04:32:40;1.40;99.90
19206;DHT22;59358;52.134;5.596;2023-04-03T04:35:07;1.40;99.90
19206;DHT22;59358;52.134;5.596;2023-04-03T04:37:35;1.40;99.90
19206;DHT22;59358;52.134;5.596;2023-04-03T04:40:02;1.40;99.90
19206;DHT22;59358;52.134;5.596;2023-04-03T04:42:30;1.30;99.90
19206;DHT22;59358;52.134;5.596;2023-04-03T04:44:57;1.40;99.90
19206;DHT22;59358;52.134;5.596;2023-04-03T04:47:23;1.30;99.90
19206;DHT22;59358;52.134;5.596;2023-04-03T04:49:50;1.30;99.90
19206;DHT22;59358;52.134;5.596;2023-04-03T04:52:17;1.30;99.90
19206;DHT22;59358;52.134;5.596;2023-04-03T04:54:45;1.30;99.90
19206;DHT22;59358;52.134;5.596;2023-04-03T04:57:12;1.30;99.90
19206;DHT22;59358;52.134;5.596;2023-04-03T04:59:40;1.20;99.90
19206;DHT22;59358;52.134;5.596;2023-04-03T05:02:07;1.20;99.90
19206;DHT22;59358;52.134;5.596;2023-04-03T05:04:34;1.20;99.90
19206;DHT22;59358;52.134;5.596;2023-04-03T05:07:00;1.10;99.90
19206;DHT22;59358;52.134;5.596;2023-04-03T05:09:27;1.10;99.90
19206;DHT22;59358;52.134;5.596;2023-04-03T05:11:54;1.10;99.90
19206;DHT22;59358;52.134;5.596;2023-04-03T05:14:21;1.10;99.90
19206;DHT22;59358;52.134;5.596;2023-04-03T05:16:50;1.10;99.90
19206;DHT22;59358;52.134;5.596;2023-04-03T05:19:19;1.10;99.90
19206;DHT22;59358;52.134;5.596;2023-04-03T05:21:46;1.10;99.90
19206;DHT22;59358;52.134;5.596;2023-04-03T05:24:13;1.10;99.90
19206;DHT22;59358;52.134;5.596;2023-04-03T05:26:41;1.10;99.90
19206;DHT22;59358;52.134;5.596;2023-04-03T05:29:08;1.10;99.90
19206;DHT22;59358;52.134;5.596;2023-04-03T05:31:35;1.10;99.90
19206;DHT22;59358;52.134;5.596;2023-04-03T05:34:03;1.10;99.90
19206;DHT22;59358;52.134;5.596;2023-04-03T05:36:30;1.10;99.90
19206;DHT22;59358;52.134;5.596;2023-04-03T05:38:57;1.20;99.90
19206;DHT22;59358;52.134;5.596;2023-04-03T05:41:23;1.20;99.90
19206;DHT22;59358;52.134;5.596;2023-04-03T05:43:50;1.20;99.90
19206;DHT22;59358;52.134;5.596;2023-04-03T05:46:18;1.20;99.90
19206;DHT22;59358;52.134;5.596;2023-04-03T05:48:46;1.30;99.90
19206;DHT22;59358;52.134;5.596;2023-04-03T05:51:17;1.30;99.90
19206;DHT22;59358;52.134;5.596;2023-04-03T05:53:44;1.40;99.90
19206;DHT22;59358;52.134;5.596;2023-04-03T05:56:12;1.40;99.90
19206;DHT22;59358;52.134;5.596;2023-04-03T05:58:38;1.50;99.90
19206;DHT22;59358;52.134;5.596;2023-04-03T06:01:05;1.60;99.90
19206;DHT22;59358;52.134;5.596;2023-04-03T06:03:33;1.60;99.90
19206;DHT22;59358;52.134;5.596;2023-04-03T06:06:03;1.70;99.90
19206;DHT22;59358;52.134;5.596;2023-04-03T06:08:31;1.80;99.90
19206;DHT22;59358;52.134;5.596;2023-04-03T06:10:59;1.90;99.90
19206;DHT22;59358;52.134;5.596;2023-04-03T06:13:27;2.00;99.90
19206;DHT22;59358;52.134;5.596;2023-04-03T06:15:54;2.10;99.90
19206;DHT22;59358;52.134;5.596;2023-04-03T06:18:22;2.10;99.90
19206;DHT22;59358;52.134;5.596;2023-04-03T06:20:48;2.20;99.90
19206;DHT22;59358;52.134;5.596;2023-04-03T06:23:15;2.30;99.90
19206;DHT22;59358;52.134;5.596;2023-04-03T06:25:44;2.30;99.90
19206;DHT22;59358;52.134;5.596;2023-04-03T06:28:11;2.40;99.90
19206;DHT22;59358;52.134;5.596;2023-04-03T06:30:38;2.50;99.90
19206;DHT22;59358;52.134;5.596;2023-04-03T06:33:05;2.50;99.90
19206;DHT22;59358;52.134;5.596;2023-04-03T06:35:32;2.60;99.90
19206;DHT22;59358;52.134;5.596;2023-04-03T06:38:00;2.70;99.90
19206;DHT22;59358;52.134;5.596;2023-04-03T06:40:30;2.70;99.90
19206;DHT22;59358;52.134;5.596;2023-04-03T06:42:58;2.70;99.90
19206;DHT22;59358;52.134;5.596;2023-04-03T06:45:25;2.80;99.90
19206;DHT22;59358;52.134;5.596;2023-04-03T06:47:53;2.90;99.90
19206;DHT22;59358;52.134;5.596;2023-04-03T06:50:20;3.00;99.90
19206;DHT22;59358;52.134;5.596;2023-04-03T06:52:46;3.00;99.90
19206;DHT22;59358;52.134;5.596;2023-04-03T06:55:13;3.10;99.90
19206;DHT22;59358;52.134;5.596;2023-04-03T06:57:40;3.20;99.90
19206;DHT22;59358;52.134;5.596;2023-04-03T07:00:10;3.20;99.90
19206;DHT22;59358;52.134;5.596;2023-04-03T07:02:37;3.30;99.90
19206;DHT22;59358;52.134;5.596;2023-04-03T07:05:04;3.40;99.90
19206;DHT22;59358;52.134;5.596;2023-04-03T07:07:34;3.50;99.90
19206;DHT22;59358;52.134;5.596;2023-04-03T07:10:01;3.60;99.90
19206;DHT22;59358;52.134;5.596;2023-04-03T07:12:28;3.60;99.90
19206;DHT22;59358;52.134;5.596;2023-04-03T07:14:55;3.70;99.90
19206;DHT22;59358;52.134;5.596;2023-04-03T07:17:23;3.70;99.90
19206;DHT22;59358;52.134;5.596;2023-04-03T07:19:50;3.90;99.90
19206;DHT22;59358;52.134;5.596;2023-04-03T07:22:17;4.00;99.90
19206;DHT22;59358;52.134;5.596;2023-04-03T07:24:44;4.10;99.90
19206;DHT22;59358;52.134;5.596;2023-04-03T07:27:11;4.10;99.90
19206;DHT22;59358;52.134;5.596;2023-04-03T07:29:39;4.10;99.90
19206;DHT22;59358;52.134;5.596;2023-04-03T07:32:06;4.10;99.90
19206;DHT22;59358;52.134;5.596;2023-04-03T07:34:35;4.20;99.90
19206;DHT22;59358;52.134;5.596;2023-04-03T07:37:01;4.30;99.90
19206;DHT22;59358;52.134;5.596;2023-04-03T07:39:28;4.40;99.90
19206;DHT22;59358;52.134;5.596;2023-04-03T07:41:55;4.40;99.90
19206;DHT22;59358;52.134;5.596;2023-04-03T07:44:22;4.50;99.90
19206;DHT22;59358;52.134;5.596;2023-04-03T07:46:50;4.70;99.90
19206;DHT22;59358;52.134;5.596;2023-04-03T07:49:17;4.70;99.90
19206;DHT22;59358;52.134;5.596;2023-04-03T07:51:45;4.80;99.90
19206;DHT22;59358;52.134;5.596;2023-04-03T07:54:14;4.90;99.90
19206;DHT22;59358;52.134;5.596;2023-04-03T07:56:40;4.90;99.90
19206;DHT22;59358;52.134;5.596;2023-04-03T07:59:08;5.00;99.90
19206;DHT22;59358;52.134;5.596;2023-04-03T08:01:35;5.20;99.90
19206;DHT22;59358;52.134;5.596;2023-04-03T08:04:02;5.40;99.90
19206;DHT22;59358;52.134;5.596;2023-04-03T08:06:31;5.50;99.90
19206;DHT22;59358;52.134;5.596;2023-04-03T08:09:02;5.50;99.90
19206;DHT22;59358;52.134;5.596;2023-04-03T08:11:29;5.50;99.90
19206;DHT22;59358;52.134;5.596;2023-04-03T08:13:56;5.50;99.90
19206;DHT22;59358;52.134;5.596;2023-04-03T08:16:24;5.60;99.90
19206;DHT22;59358;52.134;5.596;2023-04-03T08:18:52;5.70;99.90
19206;DHT22;59358;52.134;5.596;2023-04-03T08:21:19;5.60;99.90
19206;DHT22;59358;52.134;5.596;2023-04-03T08:23:48;5.80;99.90
19206;DHT22;59358;52.134;5.596;2023-04-03T08:26:18;5.70;99.90
19206;DHT22;59358;52.134;5.596;2023-04-03T08:28:46;5.80;99.90
19206;DHT22;59358;52.134;5.596;2023-04-03T08:31:15;5.90;99.90
19206;DHT22;59358;52.134;5.596;2023-04-03T08:33:44;6.00;99.90
19206;DHT22;59358;52.134;5.596;2023-04-03T08:36:19;6.10;99.90
19206;DHT22;59358;52.134;5.596;2023-04-03T08:38:47;6.20;99.90
19206;DHT22;59358;52.134;5.596;2023-04-03T08:41:20;6.40;99.90
19206;DHT22;59358;52.134;5.596;2023-04-03T08:44:04;6.50;99.90
19206;DHT22;59358;52.134;5.596;2023-04-03T08:46:43;6.60;99.90
19206;DHT22;59358;52.134;5.596;2023-04-03T08:49:19;6.70;99.90
19206;DHT22;59358;52.134;5.596;2023-04-03T08:51:49;6.80;99.90
19206;DHT22;59358;52.134;5.596;2023-04-03T08:54:25;6.70;99.10
19206;DHT22;59358;52.134;5.596;2023-04-03T08:56:56;6.80;99.90
19206;DHT22;59358;52.134;5.596;2023-04-03T08:59:28;6.90;98.90
19206;DHT22;59358;52.134;5.596;2023-04-03T09:01:58;7.00;99.20
19206;DHT22;59358;52.134;5.596;2023-04-03T09:04:28;7.20;98.80
19206;DHT22;59358;52.134;5.596;2023-04-03T09:06:59;7.10;97.80
19206;DHT22;59358;52.134;5.596;2023-04-03T09:09:32;7.20;97.90
19206;DHT22;59358;52.134;5.596;2023-04-03T09:12:12;7.30;97.40
19206;DHT22;59358;52.134;5.596;2023-04-03T09:14:49;7.20;96.10
19206;DHT22;59358;52.134;5.596;2023-04-03T09:17:26;7.30;94.80
19206;DHT22;59358;52.134;5.596;2023-04-03T09:20:03;7.30;94.20
19206;DHT22;59358;52.134;5.596;2023-04-03T09:22:34;7.30;95.80
19206;DHT22;59358;52.134;5.596;2023-04-03T09:25:10;7.60;93.80
19206;DHT22;59358;52.134;5.596;2023-04-03T09:27:40;7.70;94.80
19206;DHT22;59358;52.134;5.596;2023-04-03T09:30:13;7.60;92.90
19206;DHT22;59358;52.134;5.596;2023-04-03T09:32:40;7.50;92.20
19206;DHT22;59358;52.134;5.596;2023-04-03T09:35:17;7.80;93.80
19206;DHT22;59358;52.134;5.596;2023-04-03T09:37:47;7.90;93.90
19206;DHT22;59358;52.134;5.596;2023-04-03T09:40:34;8.00;93.00
19206;DHT22;59358;52.134;5.596;2023-04-03T09:43:20;8.20;94.50
19206;DHT22;59358;52.134;5.596;2023-04-03T09:45:49;8.40;94.00
19206;DHT22;59358;52.134;5.596;2023-04-03T09:48:19;8.40;91.90
19206;DHT22;59358;52.134;5.596;2023-04-03T09:50:58;8.40;91.60
19206;DHT22;59358;52.134;5.596;2023-04-03T09:53:29;8.20;90.70
19206;DHT22;59358;52.134;5.596;2023-04-03T09:55:57;8.30;91.50
19206;DHT22;59358;52.134;5.596;2023-04-03T09:58:27;8.40;91.20
19206;DHT22;59358;52.134;5.596;2023-04-03T10:00:55;8.30;92.60
19206;DHT22;59358;52.134;5.596;2023-04-03T10:03:25;8.30;92.10
19206;DHT22;59358;52.134;5.596;2023-04-03T10:05:53;8.20;90.60
19206;DHT22;59358;52.134;5.596;2023-04-03T10:08:24;8.40;91.90
19206;DHT22;59358;52.134;5.596;2023-04-03T10:11:22;8.50;91.00
19206;DHT22;59358;52.134;5.596;2023-04-03T10:13:54;8.80;91.60
19206;DHT22;59358;52.134;5.596;2023-04-03T10:16:26;9.00;92.70
19206;DHT22;59358;52.134;5.596;2023-04-03T10:19:11;9.00;90.10
19206;DHT22;59358;52.134;5.596;2023-04-03T10:21:45;8.70;87.90
19206;DHT22;59358;52.134;5.596;2023-04-03T10:24:17;8.90;90.90
19206;DHT22;59358;52.134;5.596;2023-04-03T10:26:56;9.20;91.50
19206;DHT22;59358;52.134;5.596;2023-04-03T10:29:42;9.30;88.20
19206;DHT22;59358;52.134;5.596;2023-04-03T10:32:24;9.30;89.90
19206;DHT22;59358;52.134;5.596;2023-04-03T10:34:58;9.10;86.90
19206;DHT22;59358;52.134;5.596;2023-04-03T10:37:30;9.20;88.30
19206;DHT22;59358;52.134;5.596;2023-04-03T10:40:20;9.30;90.80
19206;DHT22;59358;52.134;5.596;2023-04-03T10:42:55;9.40;91.00
19206;DHT22;59358;52.134;5.596;2023-04-03T10:45:30;9.30;90.30
19206;DHT22;59358;52.134;5.596;2023-04-03T10:48:05;9.20;87.80
19206;DHT22;59358;52.134;5.596;2023-04-03T10:50:44;9.00;90.10
19206;DHT22;59358;52.134;5.596;2023-04-03T10:53:21;9.20;90.10
19206;DHT22;59358;52.134;5.596;2023-04-03T10:55:54;9.10;90.10
19206;DHT22;59358;52.134;5.596;2023-04-03T10:58:28;9.40;90.70
19206;DHT22;59358;52.134;5.596;2023-04-03T11:01:00;9.30;90.70
19206;DHT22;59358;52.134;5.596;2023-04-03T11:03:32;9.50;91.60
19206;DHT22;59358;52.134;5.596;2023-04-03T11:06:05;9.80;91.30
19206;DHT22;59358;52.134;5.596;2023-04-03T11:08:35;10.00;91.60
19206;DHT22;59358;52.134;5.596;2023-04-03T11:11:06;10.00;91.20
19206;DHT22;59358;52.134;5.596;2023-04-03T11:13:37;9.90;91.30
19206;DHT22;59358;52.134;5.596;2023-04-03T11:16:07;9.90;91.70
19206;DHT22;59358;52.134;5.596;2023-04-03T11:18:39;10.00;90.50
19206;DHT22;59358;52.134;5.596;2023-04-03T11:21:09;9.90;90.70
19206;DHT22;59358;52.134;5.596;2023-04-03T11:23:39;9.70;89.10
19206;DHT22;59358;52.134;5.596;2023-04-03T11:26:11;9.90;92.20
19206;DHT22;59358;52.134;5.596;2023-04-03T11:28:40;10.10;91.10
19206;DHT22;59358;52.134;5.596;2023-04-03T11:31:29;10.30;91.10
19206;DHT22;59358;52.134;5.596;2023-04-03T11:34:08;10.00;89.70
19206;DHT22;59358;52.134;5.596;2023-04-03T11:36:42;10.00;89.10
19206;DHT22;59358;52.134;5.596;2023-04-03T11:39:19;9.90;88.30
19206;DHT22;59358;52.134;5.596;2023-04-03T11:41:47;9.80;88.60
19206;DHT22;59358;52.134;5.596;2023-04-03T11:44:38;10.00;91.20
19206;DHT22;59358;52.134;5.596;2023-04-03T11:47:08;10.60;91.70
19206;DHT22;59358;52.134;5.596;2023-04-03T11:50:06;10.80;91.80
19206;DHT22;59358;52.134;5.596;2023-04-03T11:52:58;11.00;90.20
19206;DHT22;59358;52.134;5.596;2023-04-03T11:55:55;10.70;90.10
19206;DHT22;59358;52.134;5.596;2023-04-03T11:58:23;10.40;90.40
19206;DHT22;59358;52.134;5.596;2023-04-03T12:00:54;10.30;91.00
19206;DHT22;59358;52.134;5.596;2023-04-03T12:04:04;10.50;90.00
19206;DHT22;59358;52.134;5.596;2023-04-03T12:07:08;10.60;91.60
19206;DHT22;59358;52.134;5.596;2023-04-03T12:10:12;10.80;89.70
19206;DHT22;59358;52.134;5.596;2023-04-03T12:12:41;11.00;89.20
19206;DHT22;59358;52.134;5.596;2023-04-03T12:18:43;10.80;90.40
19206;DHT22;59358;52.134;5.596;2023-04-03T12:21:12;10.60;89.30
19206;DHT22;59358;52.134;5.596;2023-04-03T12:24:01;10.50;88.00
19206;DHT22;59358;52.134;5.596;2023-04-03T12:26:33;10.50;89.20
19206;DHT22;59358;52.134;5.596;2023-04-03T12:29:02;10.50;90.60
19206;DHT22;59358;52.134;5.596;2023-04-03T12:31:42;10.40;90.10
19206;DHT22;59358;52.134;5.596;2023-04-03T12:34:23;10.40;90.00
19206;DHT22;59358;52.134;5.596;2023-04-03T12:37:01;10.70;87.90
19206;DHT22;59358;52.134;5.596;2023-04-03T12:39:51;10.60;86.40
19206;DHT22;59358;52.134;5.596;2023-04-03T12:42:55;10.30;88.70
19206;DHT22;59358;52.134;5.596;2023-04-03T12:45:27;10.10;88.50
19206;DHT22;59358;52.134;5.596;2023-04-03T12:47:55;10.10;88.70
19206;DHT22;59358;52.134;5.596;2023-04-03T12:50:24;10.00;88.70
19206;DHT22;59358;52.134;5.596;2023-04-03T12:53:04;10.10;87.30
19206;DHT22;59358;52.134;5.596;2023-04-03T12:55:32;10.30;91.20
19206;DHT22;59358;52.134;5.596;2023-04-03T12:58:14;10.40;90.70
19206;DHT22;59358;52.134;5.596;2023-04-03T13:00:42;10.70;90.30
19206;DHT22;59358;52.134;5.596;2023-04-03T13:03:22;10.90;90.70
19206;DHT22;59358;52.134;5.596;2023-04-03T13:05:50;10.60;88.30
19206;DHT22;59358;52.134;5.596;2023-04-03T13:08:19;10.60;90.20
19206;DHT22;59358;52.134;5.596;2023-04-03T13:10:51;10.50;90.30
19206;DHT22;59358;52.134;5.596;2023-04-03T13:13:19;10.70;91.10
19206;DHT22;59358;52.134;5.596;2023-04-03T13:15:48;10.80;91.00
19206;DHT22;59358;52.134;5.596;2023-04-03T13:18:29;10.70;91.30
19206;DHT22;59358;52.134;5.596;2023-04-03T13:21:01;10.80;90.00
19206;DHT22;59358;52.134;5.596;2023-04-03T13:23:31;10.80;90.00
19206;DHT22;59358;52.134;5.596;2023-04-03T13:25:59;10.90;91.70
19206;DHT22;59358;52.134;5.596;2023-04-03T13:28:31;11.00;90.60
19206;DHT22;59358;52.134;5.596;2023-04-03T13:31:03;11.00;88.40
19206;DHT22;59358;52.134;5.596;2023-04-03T13:33:34;10.70;88.80
19206;DHT22;59358;52.134;5.596;2023-04-03T13:36:05;10.70;88.50
19206;DHT22;59358;52.134;5.596;2023-04-03T13:38:35;10.60;86.80
19206;DHT22;59358;52.134;5.596;2023-04-03T13:41:05;10.80;89.10
19206;DHT22;59358;52.134;5.596;2023-04-03T13:43:35;10.60;85.90
19206;DHT22;59358;52.134;5.596;2023-04-03T13:46:20;10.60;90.60
19206;DHT22;59358;52.134;5.596;2023-04-03T13:48:49;10.60;84.80
19206;DHT22;59358;52.134;5.596;2023-04-03T13:51:20;10.60;86.70
19206;DHT22;59358;52.134;5.596;2023-04-03T13:53:51;10.80;90.30
19206;DHT22;59358;52.134;5.596;2023-04-03T13:56:23;11.00;90.70
19206;DHT22;59358;52.134;5.596;2023-04-03T13:59:20;11.10;90.20
19206;DHT22;59358;52.134;5.596;2023-04-03T14:01:52;11.30;90.70
19206;DHT22;59358;52.134;5.596;2023-04-03T14:04:20;11.40;89.50
19206;DHT22;59358;52.134;5.596;2023-04-03T14:06:48;11.40;90.30
19206;DHT22;59358;52.134;5.596;2023-04-03T14:09:18;11.30;90.00
19206;DHT22;59358;52.134;5.596;2023-04-03T14:11:46;11.40;89.60
19206;DHT22;59358;52.134;5.596;2023-04-03T14:14:15;11.20;88.90
19206;DHT22;59358;52.134;5.596;2023-04-03T14:16:46;11.00;88.60
19206;DHT22;59358;52.134;5.596;2023-04-03T14:19:23;11.30;91.10
19206;DHT22;59358;52.134;5.596;2023-04-03T14:21:51;11.60;90.00
19206;DHT22;59358;52.134;5.596;2023-04-03T14:24:20;11.60;90.40
19206;DHT22;59358;52.134;5.596;2023-04-03T14:26:49;11.30;88.80
19206;DHT22;59358;52.134;5.596;2023-04-03T14:29:18;11.40;90.90
19206;DHT22;59358;52.134;5.596;2023-04-03T14:31:46;11.40;91.00
19206;DHT22;59358;52.134;5.596;2023-04-03T14:34:14;11.60;91.60
19206;DHT22;59358;52.134;5.596;2023-04-03T14:36:43;11.50;90.30
19206;DHT22;59358;52.134;5.596;2023-04-03T14:39:11;11.50;91.10
19206;DHT22;59358;52.134;5.596;2023-04-03T14:41:44;11.70;90.30
19206;DHT22;59358;52.134;5.596;2023-04-03T14:44:11;11.50;90.00
19206;DHT22;59358;52.134;5.596;2023-04-03T14:46:41;11.50;90.80
19206;DHT22;59358;52.134;5.596;2023-04-03T14:49:13;11.50;90.60
19206;DHT22;59358;52.134;5.596;2023-04-03T14:51:40;11.50;90.90
19206;DHT22;59358;52.134;5.596;2023-04-03T14:54:12;11.60;91.20
19206;DHT22;59358;52.134;5.596;2023-04-03T14:56:39;11.70;91.90
19206;DHT22;59358;52.134;5.596;2023-04-03T14:59:11;11.80;90.00
19206;DHT22;59358;52.134;5.596;2023-04-03T15:01:38;11.90;91.20
19206;DHT22;59358;52.134;5.596;2023-04-03T15:04:09;12.10;90.30
19206;DHT22;59358;52.134;5.596;2023-04-03T15:06:36;12.00;90.50
19206;DHT22;59358;52.134;5.596;2023-04-03T15:09:03;12.00;87.50
19206;DHT22;59358;52.134;5.596;2023-04-03T15:11:30;11.80;87.90
19206;DHT22;59358;52.134;5.596;2023-04-03T15:13:57;11.80;87.20
19206;DHT22;59358;52.134;5.596;2023-04-03T15:16:25;12.20;86.70
19206;DHT22;59358;52.134;5.596;2023-04-03T15:18:52;12.40;86.30
19206;DHT22;59358;52.134;5.596;2023-04-03T15:21:19;12.60;87.40
19206;DHT22;59358;52.134;5.596;2023-04-03T15:23:46;12.60;90.40
19206;DHT22;59358;52.134;5.596;2023-04-03T15:26:13;13.20;89.60
19206;DHT22;59358;52.134;5.596;2023-04-03T15:28:41;13.40;86.70
19206;DHT22;59358;52.134;5.596;2023-04-03T15:31:09;13.40;86.70
19206;DHT22;59358;52.134;5.596;2023-04-03T15:33:38;13.20;84.30
19206;DHT22;59358;52.134;5.596;2023-04-03T15:36:05;13.80;86.50
19206;DHT22;59358;52.134;5.596;2023-04-03T15:38:32;14.30;83.90
19206;DHT22;59358;52.134;5.596;2023-04-03T15:40:59;14.80;83.30
19206;DHT22;59358;52.134;5.596;2023-04-03T15:43:26;14.90;84.70
19206;DHT22;59358;52.134;5.596;2023-04-03T15:45:56;15.40;85.20
19206;DHT22;59358;52.134;5.596;2023-04-03T15:48:25;15.90;81.80
19206;DHT22;59358;52.134;5.596;2023-04-03T15:50:54;16.30;85.90
19206;DHT22;59358;52.134;5.596;2023-04-03T15:53:21;16.90;82.40
19206;DHT22;59358;52.134;5.596;2023-04-03T15:55:47;16.20;83.30
19206;DHT22;59358;52.134;5.596;2023-04-03T15:58:14;16.00;83.00
19206;DHT22;59358;52.134;5.596;2023-04-03T16:00:41;16.30;84.00
19206;DHT22;59358;52.134;5.596;2023-04-03T16:03:10;16.60;82.40
19206;DHT22;59358;52.134;5.596;2023-04-03T16:05:38;16.30;81.00
19206;DHT22;59358;52.134;5.596;2023-04-03T16:08:08;16.70;81.20